createdAt,value
2019-01-27T00:01:14.339Z,98417.00
2019-01-27T00:03:47.073Z,98414.00
2019-01-27T00:06:18.258Z,98395.00
2019-01-27T00:08:49.433Z,98401.00
2019-01-27T00:11:20.441Z,98395.00
2019-01-27T00:13:51.611Z,98390.00
2019-01-27T00:16:22.732Z,98388.00
2019-01-27T00:18:54.078Z,98389.00
2019-01-27T00:21:25.184Z,98379.00
2019-01-27T00:23:56.422Z,98379.00
2019-01-27T00:26:27.694Z,98366.00
2019-01-27T00:28:58.767Z,98358.00
2019-01-27T00:31:30.838Z,98361.00
2019-01-27T00:34:01.879Z,98355.00
2019-01-27T00:36:32.871Z,98344.00
2019-01-27T00:39:05.885Z,98338.00
2019-01-27T00:41:38.186Z,98334.00
2019-01-27T00:44:09.286Z,98331.00
2019-01-27T00:46:40.219Z,98322.00
2019-01-27T00:49:11.427Z,98318.00
2019-01-27T00:51:42.373Z,98319.00
2019-01-27T00:54:13.291Z,98314.00
2019-01-27T00:56:44.192Z,98310.00
2019-01-27T00:59:15.467Z,98306.00
2019-01-27T01:01:46.403Z,98309.00
2019-01-27T01:04:17.345Z,98305.00
2019-01-27T01:06:48.432Z,98290.00
2019-01-27T01:09:19.524Z,98284.00
2019-01-27T01:11:50.499Z,98289.00
2019-01-27T01:14:21.452Z,98278.00
2019-01-27T01:16:52.463Z,98273.00
2019-01-27T01:19:23.582Z,98274.00
2019-01-27T01:21:54.491Z,98260.00
2019-01-27T01:24:25.357Z,98251.00
2019-01-27T01:26:56.477Z,98254.00
2019-01-27T01:29:27.368Z,98250.00
2019-01-27T01:31:58.324Z,98253.00
2019-01-27T01:34:29.210Z,98245.00
2019-01-27T01:37:00.232Z,98239.00
2019-01-27T01:39:31.249Z,98238.00
2019-01-27T01:42:02.206Z,98233.00
2019-01-27T01:44:33.073Z,98234.00
2019-01-27T01:47:04.198Z,98232.00
2019-01-27T01:49:35.044Z,98230.00
2019-01-27T01:52:06.263Z,98226.00
2019-01-27T01:54:37.371Z,98216.00
2019-01-27T01:57:09.670Z,98206.00
2019-01-27T01:59:40.804Z,98200.00
2019-01-27T02:02:11.881Z,98181.00
2019-01-27T02:04:43.944Z,98182.00
2019-01-27T02:07:15.050Z,98192.00
2019-01-27T02:09:46.116Z,98196.00
2019-01-27T02:12:17.291Z,98182.00
2019-01-27T02:14:48.359Z,98173.00
2019-01-27T02:17:19.585Z,98181.00
2019-01-27T02:19:50.695Z,98167.00
2019-01-27T02:22:21.603Z,98166.00
2019-01-27T02:24:52.483Z,98157.00
2019-01-27T02:27:23.559Z,98150.00
2019-01-27T02:30:13.862Z,98147.00
2019-01-27T02:32:45.043Z,98138.00
2019-01-27T02:35:16.062Z,98129.00
2019-01-27T02:37:48.652Z,98130.00
2019-01-27T02:40:22.535Z,98121.00
2019-01-27T02:42:53.540Z,98116.00
2019-01-27T02:45:28.812Z,98109.00
2019-01-27T02:48:06.764Z,98111.00
2019-01-27T02:50:37.699Z,98096.00
2019-01-27T02:53:08.849Z,98091.00
2019-01-27T02:55:58.932Z,98092.00
2019-01-27T02:58:30.002Z,98086.00
2019-01-27T03:01:00.928Z,98079.00
2019-01-27T03:03:33.067Z,98068.00
2019-01-27T03:06:19.297Z,98068.00
2019-01-27T03:09:09.296Z,98067.00
2019-01-27T03:11:50.686Z,98061.00
2019-01-27T03:14:22.533Z,98045.00
2019-01-27T03:16:54.581Z,98042.00
2019-01-27T03:19:25.780Z,98041.00
2019-01-27T03:21:56.780Z,98041.00
2019-01-27T03:24:27.889Z,98033.00
2019-01-27T03:26:58.864Z,98026.00
2019-01-27T03:29:30.046Z,98016.00
2019-01-27T03:32:01.113Z,98012.00
2019-01-27T03:34:32.093Z,98011.00
2019-01-27T03:37:03.294Z,98002.00
2019-01-27T03:39:37.253Z,98002.00
2019-01-27T03:42:08.314Z,97987.00
2019-01-27T03:44:39.312Z,97996.00
2019-01-27T03:47:10.426Z,97986.00
2019-01-27T03:49:41.450Z,97989.00
2019-01-27T03:52:12.485Z,97987.00
2019-01-27T03:54:43.439Z,97978.00
2019-01-27T03:57:14.366Z,97980.00
2019-01-27T03:59:45.470Z,97966.00
2019-01-27T04:02:16.396Z,97968.00
2019-01-27T04:04:47.318Z,97967.00
2019-01-27T04:07:18.123Z,97954.00
2019-01-27T04:09:49.028Z,97954.00
2019-01-27T04:12:20.032Z,97957.00
2019-01-27T04:14:51.973Z,97948.00
2019-01-27T04:17:22.894Z,97941.00
2019-01-27T04:19:53.852Z,97942.00
2019-01-27T04:22:24.736Z,97937.00
2019-01-27T04:24:55.630Z,97932.00
2019-01-27T04:27:26.497Z,97931.00
2019-01-27T04:29:57.514Z,97933.00
2019-01-27T04:32:28.410Z,97919.00
2019-01-27T04:34:59.586Z,97914.00
2019-01-27T04:37:30.424Z,97906.00
2019-01-27T04:40:01.313Z,97911.00
2019-01-27T04:42:32.145Z,97906.00
2019-01-27T04:45:03.173Z,97902.00
2019-01-27T04:47:35.263Z,97895.00
2019-01-27T04:50:09.805Z,97905.00
2019-01-27T04:52:41.012Z,97896.00
2019-01-27T04:55:15.473Z,97889.00
2019-01-27T04:57:46.494Z,97887.00
2019-01-27T05:00:20.459Z,97888.00
2019-01-27T05:03:04.946Z,97888.00
2019-01-27T05:05:37.628Z,97871.00
2019-01-27T05:08:09.526Z,97882.00
2019-01-27T05:10:40.694Z,97861.00
2019-01-27T05:13:11.775Z,97867.00
2019-01-27T05:15:42.774Z,97861.00
2019-01-27T05:18:13.649Z,97855.00
2019-01-27T05:20:44.688Z,97867.00
2019-01-27T05:23:15.921Z,97854.00
2019-01-27T05:25:46.931Z,97856.00
2019-01-27T05:28:17.843Z,97849.00
2019-01-27T05:30:48.895Z,97843.00
2019-01-27T05:33:19.901Z,97847.00
2019-01-27T05:35:51.044Z,97842.00
2019-01-27T05:38:22.015Z,97837.00
2019-01-27T05:40:53.136Z,97841.00
2019-01-27T05:43:24.159Z,97825.00
2019-01-27T05:45:55.179Z,97832.00
2019-01-27T05:48:26.062Z,97821.00
2019-01-27T05:50:57.031Z,97814.00
2019-01-27T05:53:27.974Z,97811.00
2019-01-27T05:55:58.993Z,97800.00
2019-01-27T05:58:29.903Z,97802.00
2019-01-27T06:01:00.865Z,97806.00
2019-01-27T06:03:32.040Z,97797.00
2019-01-27T06:06:03.014Z,97807.00
2019-01-27T06:08:33.854Z,97794.00
2019-01-27T06:11:04.811Z,97797.00
2019-01-27T06:13:35.717Z,97791.00
2019-01-27T06:16:06.769Z,97793.00
2019-01-27T06:18:37.591Z,97788.00
2019-01-27T06:21:08.680Z,97786.00
2019-01-27T06:23:39.637Z,97788.00
2019-01-27T06:26:10.735Z,97776.00
2019-01-27T06:28:41.584Z,97775.00
2019-01-27T06:31:12.907Z,97779.00
2019-01-27T06:33:56.115Z,97765.00
2019-01-27T06:36:27.144Z,97768.00
2019-01-27T06:38:58.117Z,97766.00
2019-01-27T06:41:29.153Z,97762.00
2019-01-27T06:44:00.475Z,97768.00
2019-01-27T06:46:31.515Z,97761.00
2019-01-27T06:49:02.455Z,97755.00
2019-01-27T06:51:33.937Z,97746.00
2019-01-27T06:54:05.811Z,97746.00
2019-01-27T06:56:36.754Z,97738.00
2019-01-27T06:59:21.013Z,97743.00
2019-01-27T07:01:57.071Z,97740.00
2019-01-27T07:04:35.335Z,97739.00
2019-01-27T07:07:37.957Z,97733.00
2019-01-27T07:10:28.699Z,97731.00
2019-01-27T07:13:16.613Z,97728.00
2019-01-27T07:16:09.359Z,97733.00
2019-01-27T07:19:09.474Z,97741.00
2019-01-27T07:21:58.091Z,97736.00
2019-01-27T07:24:54.005Z,97733.00
2019-01-27T07:27:42.534Z,97721.00
2019-01-27T07:30:31.902Z,97727.00
2019-01-27T07:33:30.632Z,97722.00
2019-01-27T07:36:20.474Z,97712.00
2019-01-27T07:39:13.203Z,97720.00
2019-01-27T07:42:03.443Z,97719.00
2019-01-27T07:44:40.170Z,97706.00
2019-01-27T07:47:26.084Z,97704.00
2019-01-27T07:50:22.202Z,97697.00
2019-01-27T07:53:02.680Z,97699.00
2019-01-27T07:55:46.420Z,97676.00
2019-01-27T07:58:39.307Z,97684.00
2019-01-27T08:01:26.985Z,97680.00
2019-01-27T08:04:29.115Z,97687.00
2019-01-27T08:07:13.534Z,97677.00
2019-01-27T08:09:52.036Z,97683.00
2019-01-27T08:12:36.700Z,97686.00
2019-01-27T08:15:19.098Z,97678.00
2019-01-27T08:18:09.908Z,97678.00
2019-01-27T08:20:57.629Z,97677.00
2019-01-27T08:23:53.348Z,97679.00
2019-01-27T08:26:31.568Z,97666.00
2019-01-27T08:29:10.684Z,97663.00
2019-01-27T08:31:47.429Z,97662.00
2019-01-27T08:34:37.558Z,97661.00
2019-01-27T08:37:32.354Z,97651.00
2019-01-27T08:40:19.415Z,97651.00
2019-01-27T08:43:15.699Z,97650.00
2019-01-27T08:46:00.076Z,97648.00
2019-01-27T08:48:31.074Z,97643.00
2019-01-27T08:51:01.918Z,97641.00
2019-01-27T08:53:32.846Z,97644.00
2019-01-27T08:56:03.912Z,97642.00
2019-01-27T08:58:34.884Z,97633.00
2019-01-27T09:01:44.104Z,97637.00
2019-01-27T09:04:25.483Z,97635.00
2019-01-27T09:07:18.536Z,97636.00
2019-01-27T09:10:07.516Z,97631.00
2019-01-27T09:13:03.398Z,97626.00
2019-01-27T09:15:54.809Z,97622.00
2019-01-27T09:18:35.052Z,97629.00
2019-01-27T09:21:43.561Z,97621.00
2019-01-27T09:24:31.995Z,97620.00
2019-01-27T09:27:31.142Z,97621.00
2019-01-27T09:30:11.179Z,97612.00
2019-01-27T09:33:06.400Z,97618.00
2019-01-27T09:35:52.728Z,97619.00
2019-01-27T09:38:48.689Z,97612.00
2019-01-27T09:41:51.157Z,97593.00
2019-01-27T09:44:38.146Z,97604.00
2019-01-27T09:47:31.222Z,97597.00
2019-01-27T09:50:08.100Z,97597.00
2019-01-27T09:53:01.241Z,97604.00
2019-01-27T09:55:44.110Z,97600.00
2019-01-27T09:58:24.564Z,97590.00
2019-01-27T10:01:26.383Z,97598.00
2019-01-27T10:04:11.925Z,97584.00
2019-01-27T10:06:54.458Z,97594.00
2019-01-27T10:09:52.810Z,97589.00
2019-01-27T10:12:34.191Z,97590.00
2019-01-27T10:15:25.553Z,97592.00
2019-01-27T10:18:10.587Z,97584.00
2019-01-27T10:20:57.126Z,97580.00
2019-01-27T10:23:47.319Z,97585.00
2019-01-27T10:26:36.012Z,97585.00
2019-01-27T10:29:20.412Z,97574.00
2019-01-27T10:32:10.089Z,97572.00
2019-01-27T10:34:51.949Z,97575.00
2019-01-27T10:37:29.636Z,97566.00
2019-01-27T10:40:23.856Z,97563.00
2019-01-27T10:43:05.886Z,97564.00
2019-01-27T10:45:56.205Z,97557.00
2019-01-27T10:48:58.254Z,97551.00
2019-01-27T10:51:46.721Z,97560.00
2019-01-27T10:54:40.282Z,97546.00
2019-01-27T10:57:44.998Z,97552.00
2019-01-27T11:00:30.003Z,97541.00
2019-01-27T11:03:10.909Z,97539.00
2019-01-27T11:06:01.010Z,97529.00
2019-01-27T11:08:45.254Z,97530.00
2019-01-27T11:11:38.391Z,97523.00
2019-01-27T11:14:29.922Z,97521.00
2019-01-27T11:17:15.148Z,97533.00
2019-01-27T11:19:55.231Z,97524.00
2019-01-27T11:22:45.326Z,97520.00
2019-01-27T11:25:36.669Z,97526.00
2019-01-27T11:28:32.492Z,97517.00
2019-01-27T11:31:19.292Z,97518.00
2019-01-27T11:34:21.564Z,97503.00
2019-01-27T11:37:00.672Z,97496.00
2019-01-27T11:39:47.991Z,97486.00
2019-01-27T11:42:46.371Z,97495.00
2019-01-27T11:45:23.738Z,97483.00
2019-01-27T11:48:20.859Z,97474.00
2019-01-27T11:50:56.032Z,97485.00
2019-01-27T11:53:27.158Z,97481.00
2019-01-27T11:55:59.415Z,97479.00
2019-01-27T11:58:30.567Z,97475.00
2019-01-27T12:01:04.498Z,97473.00
2019-01-27T12:03:35.594Z,97473.00
2019-01-27T12:06:06.830Z,97465.00
2019-01-27T12:08:55.552Z,97465.00
2019-01-27T12:11:28.179Z,97464.00
2019-01-27T12:13:59.543Z,97461.00
2019-01-27T12:16:30.762Z,97457.00
2019-01-27T12:19:01.909Z,97455.00
2019-01-27T12:21:33.008Z,97458.00
2019-01-27T12:24:04.144Z,97450.00
2019-01-27T12:26:35.239Z,97447.00
2019-01-27T12:29:06.416Z,97446.00
2019-01-27T12:31:37.533Z,97446.00
2019-01-27T12:34:08.747Z,97438.00
2019-01-27T12:36:39.816Z,97441.00
2019-01-27T12:39:11.938Z,97438.00
2019-01-27T12:41:44.746Z,97436.00
2019-01-27T12:44:15.908Z,97435.00
2019-01-27T12:46:48.014Z,97436.00
2019-01-27T12:49:26.861Z,97434.00
2019-01-27T12:51:57.961Z,97432.00
2019-01-27T12:54:30.474Z,97436.00
2019-01-27T12:57:01.765Z,97425.00
2019-01-27T12:59:33.056Z,97428.00
2019-01-27T13:02:04.708Z,97429.00
2019-01-27T13:04:36.004Z,97425.00
2019-01-27T13:07:07.140Z,97430.00
2019-01-27T13:09:38.295Z,97430.00
2019-01-27T13:12:09.426Z,97426.00
2019-01-27T13:14:43.464Z,97414.00
2019-01-27T13:17:14.552Z,97414.00
2019-01-27T13:19:45.756Z,97408.00
2019-01-27T13:22:16.964Z,97413.00
2019-01-27T13:24:48.170Z,97416.00
2019-01-27T13:27:20.130Z,97413.00
2019-01-27T13:29:51.618Z,97410.00
2019-01-27T13:32:22.674Z,97414.00
2019-01-27T13:34:56.249Z,97402.00
2019-01-27T13:37:26.862Z,97408.00
2019-01-27T13:40:00.003Z,97414.00
2019-01-27T13:42:30.949Z,97417.00
2019-01-27T13:45:02.938Z,97399.00
2019-01-27T13:47:35.708Z,97401.00
2019-01-27T13:50:10.130Z,97406.00
2019-01-27T13:52:41.474Z,97396.00
2019-01-27T13:55:20.154Z,97395.00
2019-01-27T13:57:51.180Z,97406.00
2019-01-27T14:00:32.167Z,97401.00
2019-01-27T14:03:03.237Z,97402.00
2019-01-27T14:05:34.533Z,97408.00
2019-01-27T14:08:05.753Z,97400.00
2019-01-27T14:10:36.834Z,97399.00
2019-01-27T14:13:07.963Z,97406.00
2019-01-27T14:15:39.702Z,97401.00
2019-01-27T14:18:12.250Z,97395.00
2019-01-27T14:20:43.556Z,97404.00
2019-01-27T14:23:16.852Z,97391.00
2019-01-27T14:25:48.170Z,97392.00
2019-01-27T14:28:19.320Z,97395.00
2019-01-27T14:30:50.509Z,97396.00
2019-01-27T14:33:21.587Z,97392.00
2019-01-27T14:35:52.576Z,97385.00
2019-01-27T14:38:23.544Z,97392.00
2019-01-27T14:40:54.776Z,97396.00
2019-01-27T14:43:25.732Z,97394.00
2019-01-27T14:45:56.814Z,97390.00
2019-01-27T14:48:27.770Z,97383.00
2019-01-27T14:50:58.996Z,97402.00
2019-01-27T14:53:29.917Z,97397.00
2019-01-27T14:56:00.975Z,97392.00
2019-01-27T14:58:33.523Z,97397.00
2019-01-27T15:01:04.719Z,97396.00
2019-01-27T15:03:35.688Z,97392.00
2019-01-27T15:06:26.006Z,97396.00
2019-01-27T15:09:03.970Z,97394.00
2019-01-27T15:11:37.002Z,97398.00
2019-01-27T15:14:08.343Z,97395.00
2019-01-27T15:16:39.409Z,97393.00
2019-01-27T15:19:10.375Z,97394.00
2019-01-27T15:21:42.051Z,97396.00
2019-01-27T15:24:13.007Z,97396.00
2019-01-27T15:26:44.149Z,97398.00
2019-01-27T15:29:15.103Z,97399.00
2019-01-27T15:31:46.958Z,97400.00
2019-01-27T15:34:18.584Z,97398.00
2019-01-27T15:36:49.819Z,97402.00
2019-01-27T15:39:20.761Z,97401.00
2019-01-27T15:41:51.805Z,97409.00
2019-01-27T15:44:23.906Z,97402.00
2019-01-27T15:46:55.048Z,97405.00
2019-01-27T15:49:26.113Z,97410.00
2019-01-27T15:51:57.227Z,97410.00
2019-01-27T15:54:31.187Z,97408.00
2019-01-27T15:57:02.481Z,97406.00
2019-01-27T15:59:33.526Z,97411.00
2019-01-27T16:02:04.873Z,97414.00
2019-01-27T16:04:49.218Z,97407.00
2019-01-27T16:07:20.138Z,97407.00
2019-01-27T16:09:51.268Z,97409.00
2019-01-27T16:12:22.366Z,97410.00
2019-01-27T16:14:53.447Z,97414.00
2019-01-27T16:17:24.399Z,97417.00
2019-01-27T16:19:55.429Z,97416.00
2019-01-27T16:22:26.333Z,97421.00
2019-01-27T16:24:57.317Z,97417.00
2019-01-27T16:27:28.401Z,97419.00
2019-01-27T16:30:11.129Z,97423.00
2019-01-27T16:32:42.721Z,97422.00
2019-01-27T16:35:17.159Z,97421.00
2019-01-27T16:37:48.204Z,97428.00
2019-01-27T16:40:19.327Z,97421.00
2019-01-27T16:42:50.326Z,97419.00
2019-01-27T16:45:21.186Z,97416.00
2019-01-27T16:47:52.763Z,97425.00
2019-01-27T16:50:23.971Z,97418.00
2019-01-27T16:52:54.987Z,97421.00
2019-01-27T16:55:26.093Z,97422.00
2019-01-27T16:57:57.074Z,97426.00
2019-01-27T17:00:29.260Z,97427.00
2019-01-27T17:03:00.427Z,97426.00
2019-01-27T17:05:31.590Z,97428.00
2019-01-27T17:08:02.637Z,97429.00
2019-01-27T17:10:33.726Z,97430.00
2019-01-27T17:13:06.643Z,97423.00
2019-01-27T17:15:41.243Z,97422.00
2019-01-27T17:18:15.743Z,97425.00
2019-01-27T17:20:48.807Z,97427.00
2019-01-27T17:23:20.712Z,97432.00
2019-01-27T17:25:53.588Z,97432.00
2019-01-27T17:28:24.605Z,97428.00
2019-01-27T17:30:57.275Z,97433.00
2019-01-27T17:33:28.313Z,97438.00
2019-01-27T17:36:11.695Z,97435.00
2019-01-27T17:38:42.736Z,97429.00
2019-01-27T17:41:13.849Z,97428.00
2019-01-27T17:43:47.262Z,97435.00
2019-01-27T17:46:18.414Z,97430.00
2019-01-27T17:48:49.599Z,97428.00
2019-01-27T17:51:20.670Z,97432.00
2019-01-27T17:54:10.864Z,97434.00
2019-01-27T17:56:43.573Z,97431.00
2019-01-27T17:59:45.507Z,97443.00
2019-01-27T18:02:34.183Z,97436.00
2019-01-27T18:05:20.785Z,97441.00
2019-01-27T18:08:11.356Z,97447.00
2019-01-27T18:10:56.251Z,97443.00
2019-01-27T18:13:44.878Z,97448.00
2019-01-27T18:16:16.021Z,97451.00
2019-01-27T18:18:47.255Z,97449.00
2019-01-27T18:21:18.462Z,97450.00
2019-01-27T18:23:49.498Z,97448.00
2019-01-27T18:26:20.786Z,97463.00
2019-01-27T18:28:54.759Z,97458.00
2019-01-27T18:31:25.910Z,97455.00
2019-01-27T18:33:59.451Z,97458.00
2019-01-27T18:36:30.692Z,97457.00
2019-01-27T18:39:01.742Z,97464.00
2019-01-27T18:41:34.517Z,97459.00
2019-01-27T18:44:05.576Z,97465.00
2019-01-27T18:46:36.934Z,97468.00
2019-01-27T18:49:09.360Z,97461.00
2019-01-27T18:51:41.052Z,97469.00
2019-01-27T18:54:49.647Z,97466.00
2019-01-27T18:57:32.092Z,97478.00
2019-01-27T19:00:34.554Z,97484.00
2019-01-27T19:03:21.268Z,97476.00
2019-01-27T19:06:10.163Z,97479.00
2019-01-27T19:09:00.918Z,97485.00
2019-01-27T19:11:52.922Z,97494.00
2019-01-27T19:14:54.200Z,97492.00
2019-01-27T19:17:34.206Z,97485.00
2019-01-27T19:20:16.053Z,97496.00
2019-01-27T19:22:57.867Z,97498.00
2019-01-27T19:25:46.847Z,97499.00
2019-01-27T19:28:47.867Z,97499.00
2019-01-27T19:31:27.366Z,97497.00
2019-01-27T19:34:35.292Z,97509.00
2019-01-27T19:37:22.342Z,97504.00
2019-01-27T19:40:06.338Z,97503.00
2019-01-27T19:42:56.571Z,97524.00
2019-01-27T19:45:38.788Z,97512.00
2019-01-27T19:48:29.127Z,97512.00
2019-01-27T19:51:25.048Z,97518.00
2019-01-27T19:54:13.626Z,97529.00
2019-01-27T19:57:03.564Z,97528.00
2019-01-27T19:59:57.605Z,97532.00
2019-01-27T20:02:53.420Z,97533.00
2019-01-27T20:05:44.671Z,97537.00
2019-01-27T20:08:37.932Z,97549.00
2019-01-27T20:11:24.497Z,97554.00
2019-01-27T20:14:17.836Z,97548.00
2019-01-27T20:17:03.004Z,97561.00
2019-01-27T20:20:08.738Z,97564.00
2019-01-27T20:22:57.918Z,97565.00
2019-01-27T20:25:37.618Z,97562.00
2019-01-27T20:28:16.568Z,97584.00
2019-01-27T20:31:06.664Z,97564.00
2019-01-27T20:33:55.780Z,97582.00
2019-01-27T20:36:43.081Z,97579.00
2019-01-27T20:39:32.357Z,97581.00
2019-01-27T20:42:25.284Z,97588.00
2019-01-27T20:45:14.097Z,97593.00
2019-01-27T20:48:05.452Z,97602.00
2019-01-27T20:50:56.029Z,97596.00
2019-01-27T20:53:35.180Z,97595.00
2019-01-27T20:56:31.974Z,97606.00
2019-01-27T20:59:30.396Z,97606.00
2019-01-27T21:02:19.548Z,97604.00
2019-01-27T21:04:59.634Z,97607.00
2019-01-27T21:07:52.678Z,97617.00
2019-01-27T21:10:39.489Z,97618.00
2019-01-27T21:13:17.667Z,97616.00
2019-01-27T21:16:18.949Z,97614.00
2019-01-27T21:18:59.141Z,97620.00
2019-01-27T21:21:30.237Z,97629.00
2019-01-27T21:24:01.416Z,97628.00
2019-01-27T21:26:34.955Z,97639.00
2019-01-27T21:29:06.502Z,97632.00
2019-01-27T21:31:37.410Z,97639.00
2019-01-27T21:34:09.308Z,97640.00
2019-01-27T21:36:40.222Z,97639.00
2019-01-27T21:39:12.657Z,97641.00
2019-01-27T21:41:43.747Z,97641.00
2019-01-27T21:44:15.424Z,97646.00
2019-01-27T21:46:46.418Z,97644.00
2019-01-27T21:49:17.383Z,97643.00
2019-01-27T21:51:48.396Z,97647.00
2019-01-27T21:54:19.536Z,97655.00
2019-01-27T21:56:50.525Z,97660.00
2019-01-27T21:59:21.443Z,97661.00
2019-01-27T22:01:52.507Z,97663.00
2019-01-27T22:04:23.561Z,97680.00
2019-01-27T22:06:55.011Z,97682.00
2019-01-27T22:09:27.823Z,97676.00
2019-01-27T22:11:59.023Z,97675.00
2019-01-27T22:14:30.269Z,97677.00
2019-01-27T22:17:01.516Z,97686.00
2019-01-27T22:19:32.689Z,97693.00
2019-01-27T22:22:03.776Z,97688.00
2019-01-27T22:24:34.951Z,97691.00
2019-01-27T22:27:06.237Z,97690.00
2019-01-27T22:29:37.443Z,97690.00
2019-01-27T22:32:08.615Z,97699.00
2019-01-27T22:34:39.744Z,97698.00
2019-01-27T22:37:10.800Z,97697.00
2019-01-27T22:39:41.978Z,97696.00
2019-01-27T22:42:13.049Z,97703.00
2019-01-27T22:44:44.153Z,97700.00
2019-01-27T22:47:15.271Z,97702.00
2019-01-27T22:49:46.338Z,97709.00
2019-01-27T22:52:17.457Z,97689.00
2019-01-27T22:54:48.594Z,97715.00
2019-01-27T22:57:19.598Z,97715.00
2019-01-27T22:59:50.725Z,97721.00
2019-01-27T23:02:21.714Z,97722.00
2019-01-27T23:04:52.892Z,97726.00
2019-01-27T23:07:23.930Z,97726.00
2019-01-27T23:09:54.889Z,97731.00
2019-01-27T23:12:27.483Z,97729.00
2019-01-27T23:14:58.456Z,97735.00
2019-01-27T23:17:29.502Z,97735.00
2019-01-27T23:20:00.553Z,97744.00
2019-01-27T23:22:37.687Z,97741.00
2019-01-27T23:25:08.811Z,97749.00
2019-01-27T23:27:39.907Z,97748.00
2019-01-27T23:30:11.677Z,97749.00
2019-01-27T23:32:42.855Z,97750.00
2019-01-27T23:35:14.120Z,97751.00
2019-01-27T23:37:45.271Z,97752.00
2019-01-27T23:40:16.479Z,97761.00
2019-01-27T23:42:49.326Z,97756.00
2019-01-27T23:45:20.377Z,97768.00
2019-01-27T23:47:51.457Z,97767.00
2019-01-27T23:50:22.481Z,97767.00
2019-01-27T23:52:53.597Z,97762.00
2019-01-27T23:55:24.726Z,97772.00
2019-01-27T23:57:55.678Z,97769.00
